createdAt,value
2022-10-20T00:00:01.214Z,1026.37
2022-10-20T00:01:04.285Z,1026.38
2022-10-20T00:02:01.437Z,1026.4
2022-10-20T00:03:01.222Z,1026.39
2022-10-20T00:04:01.147Z,1026.37
2022-10-20T00:05:01.183Z,1026.36
2022-10-20T00:06:06.405Z,1026.35
2022-10-20T00:07:01.059Z,1026.32
2022-10-20T00:08:01.076Z,1026.33
2022-10-20T00:09:01.187Z,1026.33
2022-10-20T00:10:01.917Z,1026.32
2022-10-20T00:11:10.554Z,1026.32
2022-10-20T00:12:01.480Z,1026.36
2022-10-20T00:13:01.260Z,1026.39
2022-10-20T00:14:01.112Z,1026.32
2022-10-20T00:15:01.105Z,1026.37
2022-10-20T00:16:13.488Z,1026.38
2022-10-20T00:17:01.124Z,1026.38
2022-10-20T00:18:01.139Z,1026.34
2022-10-20T00:19:01.135Z,1026.35
2022-10-20T00:20:01.248Z,1026.33
2022-10-20T00:21:15.750Z,1026.35
2022-10-20T00:22:01.393Z,1026.39
2022-10-20T00:23:01.366Z,1026.32
2022-10-20T00:24:01.385Z,1026.35
2022-10-20T00:25:02.735Z,1026.35
2022-10-20T00:26:01.098Z,1026.34
2022-10-20T00:27:01.049Z,1026.33
2022-10-20T00:28:01.090Z,1026.34
2022-10-20T00:29:01.095Z,1026.34
2022-10-20T00:30:01.104Z,1026.33
2022-10-20T00:31:01.117Z,1026.31
2022-10-20T00:32:01.226Z,1026.3
2022-10-20T00:33:01.133Z,1026.28
2022-10-20T00:34:01.053Z,1026.28
2022-10-20T00:35:01.036Z,1026.26
2022-10-20T00:36:01.145Z,1026.32
2022-10-20T00:37:01.148Z,1026.31
2022-10-20T00:38:01.454Z,1026.3
2022-10-20T00:39:01.905Z,1026.28
2022-10-20T00:40:01.106Z,1026.29
2022-10-20T00:41:01.210Z,1026.26
2022-10-20T00:42:01.905Z,1026.26
2022-10-20T00:43:01.084Z,1026.25
2022-10-20T00:44:01.088Z,1026.25
2022-10-20T00:45:01.398Z,1026.2
2022-10-20T00:46:01.488Z,1026.19
2022-10-20T00:47:01.134Z,1026.17
2022-10-20T00:48:01.136Z,1026.17
2022-10-20T00:49:01.125Z,1026.18
2022-10-20T00:50:01.120Z,1026.15
2022-10-20T00:51:01.135Z,1026.14
2022-10-20T00:52:01.246Z,1026.12
2022-10-20T00:53:01.138Z,1026.12
2022-10-20T00:54:01.140Z,1026.11
2022-10-20T00:55:01.047Z,1026.1
2022-10-20T00:56:01.259Z,1026.1
2022-10-20T00:57:04.122Z,1026.11
2022-10-20T00:58:01.075Z,1026.05
2022-10-20T00:59:01.053Z,1026.02
2022-10-20T01:00:01.485Z,1026.04
2022-10-20T01:01:01.091Z,1026.02
2022-10-20T01:02:01.139Z,1026.02
2022-10-20T01:03:01.122Z,1026.01
2022-10-20T01:04:01.102Z,1026.01
2022-10-20T01:05:01.145Z,1026
2022-10-20T01:06:01.149Z,1026.01
2022-10-20T01:07:00.939Z,1026.04
2022-10-20T01:08:00.635Z,1026.02
2022-10-20T01:09:00.376Z,1026.01
2022-10-20T01:10:00.015Z,1025.99
2022-10-20T01:10:59.618Z,1026
2022-10-20T01:12:01.708Z,1026.01
2022-10-20T01:13:01.801Z,1026
2022-10-20T01:14:01.661Z,1026
2022-10-20T01:15:02.151Z,1025.98
2022-10-20T01:16:01.397Z,1025.96
2022-10-20T01:17:01.899Z,1026
2022-10-20T01:18:01.821Z,1025.99
2022-10-20T01:19:01.143Z,1025.98
2022-10-20T01:20:01.856Z,1025.97
2022-10-20T01:21:01.148Z,1025.97
2022-10-20T01:22:01.124Z,1025.97
2022-10-20T01:23:01.121Z,1025.95
2022-10-20T01:24:01.323Z,1025.95
2022-10-20T01:25:01.517Z,1025.94
2022-10-20T01:26:01.147Z,1025.98
2022-10-20T01:27:01.096Z,1025.94
2022-10-20T01:28:01.063Z,1025.97
2022-10-20T01:29:01.061Z,1025.96
2022-10-20T01:31:01.088Z,1025.94
2022-10-20T01:32:01.076Z,1025.88
2022-10-20T01:33:01.364Z,1025.89
2022-10-20T01:34:01.041Z,1025.88
2022-10-20T01:35:01.451Z,1025.89
2022-10-20T01:36:01.116Z,1025.89
2022-10-20T01:37:01.132Z,1025.9
2022-10-20T01:38:01.143Z,1025.88
2022-10-20T01:39:01.122Z,1025.83
2022-10-20T01:40:01.133Z,1025.84
2022-10-20T01:41:01.162Z,1025.84
2022-10-20T01:42:01.148Z,1025.83
2022-10-20T01:43:01.858Z,1025.82
2022-10-20T01:44:01.871Z,1025.79
2022-10-20T01:45:01.484Z,1025.74
2022-10-20T01:46:01.106Z,1025.73
2022-10-20T01:47:01.075Z,1025.79
2022-10-20T01:48:01.308Z,1025.76
2022-10-20T01:49:01.477Z,1025.74
2022-10-20T01:50:01.061Z,1025.7
2022-10-20T01:51:01.188Z,1025.7
2022-10-20T01:52:01.111Z,1025.75
2022-10-20T01:53:01.116Z,1025.72
2022-10-20T01:54:01.134Z,1025.68
2022-10-20T01:55:01.121Z,1025.67
2022-10-20T01:56:00.755Z,1025.68
2022-10-20T01:57:00.426Z,1025.68
2022-10-20T01:58:00.261Z,1025.66
2022-10-20T01:59:00.016Z,1025.66
2022-10-20T01:59:59.710Z,1025.59
2022-10-20T02:01:01.357Z,1025.59
2022-10-20T02:02:01.970Z,1025.57
2022-10-20T02:03:01.079Z,1025.58
2022-10-20T02:04:01.107Z,1025.61
2022-10-20T02:05:01.092Z,1025.58
2022-10-20T02:06:01.102Z,1025.54
2022-10-20T02:07:01.530Z,1025.56
2022-10-20T02:08:00.978Z,1025.51
2022-10-20T02:09:00.655Z,1025.44
2022-10-20T02:10:00.399Z,1025.49
2022-10-20T02:11:00.422Z,1025.5
2022-10-20T02:12:01.148Z,1025.48
2022-10-20T02:13:01.157Z,1025.48
2022-10-20T02:14:01.142Z,1025.48
2022-10-20T02:15:01.458Z,1025.45
2022-10-20T02:16:01.058Z,1025.48
2022-10-20T02:17:01.069Z,1025.49
2022-10-20T02:18:01.062Z,1025.48
2022-10-20T02:19:01.096Z,1025.41
2022-10-20T02:20:01.109Z,1025.39
2022-10-20T02:21:01.475Z,1025.41
2022-10-20T02:22:00.983Z,1025.35
2022-10-20T02:23:01.052Z,1025.34
2022-10-20T02:24:00.542Z,1025.33
2022-10-20T02:25:00.173Z,1025.31
2022-10-20T02:25:59.946Z,1025.3
2022-10-20T02:26:59.686Z,1025.3
2022-10-20T02:28:01.333Z,1025.33
2022-10-20T02:29:01.329Z,1025.25
2022-10-20T02:30:01.395Z,1025.32
2022-10-20T02:31:01.076Z,1025.32
2022-10-20T02:32:01.046Z,1025.27
2022-10-20T02:33:01.065Z,1025.29
2022-10-20T02:34:01.087Z,1025.25
2022-10-20T02:35:05.029Z,1025.23
2022-10-20T02:36:01.097Z,1025.16
2022-10-20T02:37:01.108Z,1025.12
2022-10-20T02:38:01.138Z,1025.08
2022-10-20T02:39:01.173Z,1025.06
2022-10-20T02:40:01.226Z,1025.01
2022-10-20T02:41:02.813Z,1024.93
2022-10-20T02:42:01.510Z,1024.89
2022-10-20T02:43:01.123Z,1024.88
2022-10-20T02:44:01.149Z,1024.9
2022-10-20T02:45:01.133Z,1024.9
2022-10-20T02:46:05.930Z,1024.97
2022-10-20T02:47:01.531Z,1025.01
2022-10-20T02:48:02.527Z,1024.95
2022-10-20T02:49:01.697Z,1024.88
2022-10-20T02:50:02.025Z,1024.88
2022-10-20T02:51:10.463Z,1024.87
2022-10-20T02:52:01.082Z,1024.87
2022-10-20T02:53:01.465Z,1024.89
2022-10-20T02:54:01.203Z,1024.91
2022-10-20T02:55:01.111Z,1024.93
2022-10-20T02:56:13.466Z,1024.93
2022-10-20T02:57:01.122Z,1024.92
2022-10-20T02:58:01.123Z,1024.89
2022-10-20T02:59:01.129Z,1024.88
2022-10-20T03:00:01.131Z,1024.95
2022-10-20T03:01:16.301Z,1024.89
2022-10-20T03:02:01.609Z,1024.92
2022-10-20T03:03:01.170Z,1024.93
2022-10-20T03:04:01.057Z,1024.9
2022-10-20T03:05:01.060Z,1024.91
2022-10-20T03:06:01.107Z,1024.87
2022-10-20T03:07:01.743Z,1024.87
2022-10-20T03:08:01.053Z,1024.91
2022-10-20T03:09:01.106Z,1024.83
2022-10-20T03:10:01.093Z,1024.85
2022-10-20T03:11:01.451Z,1024.83
2022-10-20T03:12:01.119Z,1024.84
2022-10-20T03:13:01.148Z,1024.84
2022-10-20T03:14:00.574Z,1024.84
2022-10-20T03:15:00.210Z,1024.84
2022-10-20T03:15:59.796Z,1024.82
2022-10-20T03:17:01.452Z,1024.82
2022-10-20T03:18:02.861Z,1024.8
2022-10-20T03:19:04.587Z,1024.77
2022-10-20T03:20:01.857Z,1024.76
2022-10-20T03:21:01.155Z,1024.76
2022-10-20T03:22:01.091Z,1024.78
2022-10-20T03:23:01.067Z,1024.74
2022-10-20T03:24:01.389Z,1024.76
2022-10-20T03:25:01.050Z,1024.78
2022-10-20T03:26:01.097Z,1024.72
2022-10-20T03:27:01.107Z,1024.72
2022-10-20T03:28:01.101Z,1024.71
2022-10-20T03:29:01.047Z,1024.69
2022-10-20T03:30:01.151Z,1024.66
2022-10-20T03:31:01.131Z,1024.71
2022-10-20T03:32:01.515Z,1024.67
2022-10-20T03:33:01.152Z,1024.7
2022-10-20T03:34:00.728Z,1024.67
2022-10-20T03:35:00.302Z,1024.65
2022-10-20T03:35:59.856Z,1024.65
2022-10-20T03:37:01.751Z,1024.63
2022-10-20T03:38:01.094Z,1024.55
2022-10-20T03:39:01.089Z,1024.63
2022-10-20T03:40:01.074Z,1024.61
2022-10-20T03:42:01.094Z,1024.62
2022-10-20T03:43:01.161Z,1024.63
2022-10-20T03:44:01.103Z,1024.59
2022-10-20T03:45:01.107Z,1024.63
2022-10-20T03:46:01.138Z,1024.66
2022-10-20T03:47:01.060Z,1024.67
2022-10-20T03:48:01.146Z,1024.62
2022-10-20T03:49:01.750Z,1024.63
2022-10-20T03:50:01.590Z,1024.63
2022-10-20T03:51:01.452Z,1024.65
2022-10-20T03:52:01.145Z,1024.62
2022-10-20T03:53:01.048Z,1024.6
2022-10-20T03:54:01.149Z,1024.58
2022-10-20T03:55:01.049Z,1024.54
2022-10-20T03:56:01.089Z,1024.52
2022-10-20T03:57:04.169Z,1024.49
2022-10-20T03:58:01.357Z,1024.43
2022-10-20T03:59:01.152Z,1024.45
2022-10-20T04:00:01.504Z,1024.5
2022-10-20T04:01:01.156Z,1024.47
2022-10-20T04:02:01.290Z,1024.5
2022-10-20T04:03:01.143Z,1024.51
2022-10-20T04:04:01.079Z,1024.52
2022-10-20T04:05:07.187Z,1024.49
2022-10-20T04:06:06.348Z,1024.52
2022-10-20T04:07:01.540Z,1024.49
2022-10-20T04:08:02.208Z,1024.49
2022-10-20T04:09:01.210Z,1024.45
2022-10-20T04:10:02.365Z,1024.44
2022-10-20T04:11:01.089Z,1024.41
2022-10-20T04:12:01.134Z,1024.48
2022-10-20T04:13:01.050Z,1024.45
2022-10-20T04:14:01.116Z,1024.46
2022-10-20T04:15:01.104Z,1024.43
2022-10-20T04:16:01.425Z,1024.45
2022-10-20T04:17:02.226Z,1024.47
2022-10-20T04:18:01.120Z,1024.47
2022-10-20T04:19:01.752Z,1024.44
2022-10-20T04:20:01.132Z,1024.44
2022-10-20T04:21:00.920Z,1024.45
2022-10-20T04:22:04.011Z,1024.44
2022-10-20T04:23:01.426Z,1024.47
2022-10-20T04:24:03.343Z,1024.5
2022-10-20T04:25:01.170Z,1024.52
2022-10-20T04:26:01.189Z,1024.46
2022-10-20T04:27:06.278Z,1024.47
2022-10-20T04:28:01.184Z,1024.43
2022-10-20T04:29:01.898Z,1024.45
2022-10-20T04:30:01.489Z,1024.42
2022-10-20T04:31:01.099Z,1024.4
2022-10-20T04:32:09.574Z,1024.4
2022-10-20T04:33:01.306Z,1024.44
2022-10-20T04:34:01.131Z,1024.49
2022-10-20T04:35:01.292Z,1024.47
2022-10-20T04:36:01.323Z,1024.45
2022-10-20T04:37:12.156Z,1024.46
2022-10-20T04:38:01.159Z,1024.43
2022-10-20T04:39:01.137Z,1024.41
2022-10-20T04:40:01.041Z,1024.4
2022-10-20T04:41:03.987Z,1024.41
2022-10-20T04:42:15.339Z,1024.38
2022-10-20T04:43:01.985Z,1024.41
2022-10-20T04:44:02.080Z,1024.42
2022-10-20T04:45:01.188Z,1024.39
2022-10-20T04:46:03.853Z,1024.43
2022-10-20T04:47:01.093Z,1024.35
2022-10-20T04:48:01.095Z,1024.34
2022-10-20T04:49:01.118Z,1024.4
2022-10-20T04:50:00.939Z,1024.32
2022-10-20T04:51:01.119Z,1024.33
2022-10-20T04:52:01.418Z,1024.35
2022-10-20T04:53:01.164Z,1024.39
2022-10-20T04:54:01.207Z,1024.35
2022-10-20T04:55:01.152Z,1024.3
2022-10-20T04:56:01.158Z,1024.28
2022-10-20T04:57:01.062Z,1024.27
2022-10-20T04:58:01.100Z,1024.2
2022-10-20T04:59:01.757Z,1024.21
2022-10-20T05:00:01.141Z,1024.18
2022-10-20T05:01:01.078Z,1024.16
2022-10-20T05:02:01.124Z,1024.12
2022-10-20T05:03:01.467Z,1024.11
2022-10-20T05:04:01.476Z,1024.09
2022-10-20T05:05:01.048Z,1024.08
2022-10-20T05:06:01.042Z,1024.13
2022-10-20T05:07:01.043Z,1024.13
2022-10-20T05:08:01.059Z,1024.14
2022-10-20T05:09:01.208Z,1024.13
2022-10-20T05:10:01.952Z,1024.15
2022-10-20T05:11:02.573Z,1024.11
2022-10-20T05:12:01.622Z,1024.15
2022-10-20T05:13:01.578Z,1024.09
2022-10-20T05:14:01.853Z,1024.11
2022-10-20T05:15:01.161Z,1024.09
2022-10-20T05:16:01.078Z,1024.15
2022-10-20T05:17:02.421Z,1024.12
2022-10-20T05:18:01.877Z,1024.14
2022-10-20T05:19:01.128Z,1024.15
2022-10-20T05:20:01.118Z,1024.19
2022-10-20T05:21:08.798Z,1024.12
2022-10-20T05:22:01.230Z,1024.07
2022-10-20T05:23:01.147Z,1024.11
2022-10-20T05:24:01.128Z,1024.1
2022-10-20T05:25:24.586Z,1024.03
2022-10-20T05:26:01.515Z,1024.08
2022-10-20T05:27:02.081Z,1024.06
2022-10-20T05:28:02.161Z,1024.09
2022-10-20T05:29:01.158Z,1024.06
2022-10-20T05:30:01.479Z,1024.05
2022-10-20T05:31:01.803Z,1024.03
2022-10-20T05:32:01.088Z,1024.01
2022-10-20T05:33:00.767Z,1024.01
2022-10-20T05:34:00.375Z,1024.02
2022-10-20T05:34:59.949Z,1023.99
2022-10-20T05:35:59.671Z,1023.98
2022-10-20T05:37:02.431Z,1024
2022-10-20T05:38:02.133Z,1024.01
2022-10-20T05:39:02.363Z,1024.09
2022-10-20T05:40:01.146Z,1024.07
2022-10-20T05:41:01.178Z,1024.07
2022-10-20T05:42:01.130Z,1024.1
2022-10-20T05:43:01.141Z,1024.11
2022-10-20T05:44:01.150Z,1024.1
2022-10-20T05:45:01.460Z,1024.1
2022-10-20T05:46:01.070Z,1024.06
2022-10-20T05:47:01.089Z,1024.05
2022-10-20T05:48:01.593Z,1024.08
2022-10-20T05:49:01.222Z,1024.06
2022-10-20T05:50:01.002Z,1024.04
2022-10-20T05:51:00.700Z,1024.03
2022-10-20T05:52:00.614Z,1023.98
2022-10-20T05:53:00.390Z,1023.92
2022-10-20T05:53:59.991Z,1023.97
2022-10-20T05:54:59.622Z,1023.96
2022-10-20T05:56:01.265Z,1023.97
2022-10-20T05:57:01.516Z,1023.96
2022-10-20T05:58:02.660Z,1023.97
2022-10-20T05:59:01.135Z,1023.96
2022-10-20T06:00:01.153Z,1023.96
2022-10-20T06:01:01.076Z,1023.92
2022-10-20T06:02:01.125Z,1023.95
2022-10-20T06:03:05.623Z,1023.9
2022-10-20T06:04:01.185Z,1023.93
2022-10-20T06:05:02.072Z,1023.96
2022-10-20T06:06:02.062Z,1023.99
2022-10-20T06:07:02.096Z,1024.06
2022-10-20T06:08:07.613Z,1024.08
2022-10-20T06:09:01.108Z,1024.1
2022-10-20T06:10:01.803Z,1024.11
2022-10-20T06:11:01.781Z,1024.15
2022-10-20T06:12:02.488Z,1024.18
2022-10-20T06:13:10.926Z,1024.18
2022-10-20T06:14:01.507Z,1024.13
2022-10-20T06:15:01.250Z,1024.19
2022-10-20T06:16:02.151Z,1024.2
2022-10-20T06:17:01.072Z,1024.17
2022-10-20T06:18:13.312Z,1024.18
2022-10-20T06:19:01.815Z,1024.26
2022-10-20T06:20:02.505Z,1024.24
2022-10-20T06:21:01.487Z,1024.21
2022-10-20T06:22:04.073Z,1024.22
2022-10-20T06:23:16.739Z,1024.16
2022-10-20T06:24:02.317Z,1024.2
2022-10-20T06:25:01.924Z,1024.2
2022-10-20T06:26:02.134Z,1024.2
2022-10-20T06:27:01.121Z,1024.21
2022-10-20T06:28:01.118Z,1024.2
2022-10-20T06:29:04.696Z,1024.23
2022-10-20T06:30:01.541Z,1024.18
2022-10-20T06:31:02.279Z,1024.17
2022-10-20T06:32:01.194Z,1024.24
2022-10-20T06:33:01.158Z,1024.25
2022-10-20T06:34:00.856Z,1024.26
2022-10-20T06:35:00.435Z,1024.27
2022-10-20T06:36:00.064Z,1024.25
2022-10-20T06:36:59.732Z,1024.25
2022-10-20T06:38:01.853Z,1024.28
2022-10-20T06:39:02.029Z,1024.25
2022-10-20T06:40:01.856Z,1024.24
2022-10-20T06:41:01.470Z,1024.27
2022-10-20T06:42:02.125Z,1024.25
2022-10-20T06:43:02.134Z,1024.28
2022-10-20T06:44:01.832Z,1024.27
2022-10-20T06:45:01.177Z,1024.24
2022-10-20T06:46:01.130Z,1024.35
2022-10-20T06:47:01.147Z,1024.32
2022-10-20T06:48:01.141Z,1024.33
2022-10-20T06:49:01.172Z,1024.37
2022-10-20T06:50:01.078Z,1024.35
2022-10-20T06:51:01.078Z,1024.37
2022-10-20T06:52:01.113Z,1024.38
2022-10-20T06:53:01.079Z,1024.38
2022-10-20T06:54:01.475Z,1024.42
2022-10-20T06:55:01.375Z,1024.35
2022-10-20T06:56:02.770Z,1024.38
2022-10-20T06:57:02.150Z,1024.43
2022-10-20T06:58:01.105Z,1024.38
2022-10-20T06:59:01.137Z,1024.36
2022-10-20T07:00:00.651Z,1024.36
2022-10-20T07:01:02.602Z,1024.38
2022-10-20T07:02:01.495Z,1024.44
2022-10-20T07:03:01.403Z,1024.44
2022-10-20T07:04:02.267Z,1024.41
2022-10-20T07:05:01.169Z,1024.44
2022-10-20T07:06:01.790Z,1024.43
2022-10-20T07:07:01.080Z,1024.42
2022-10-20T07:08:01.176Z,1024.44
2022-10-20T07:09:01.179Z,1024.4
2022-10-20T07:10:02.438Z,1024.43
2022-10-20T07:11:02.118Z,1024.41
2022-10-20T07:12:01.490Z,1024.36
2022-10-20T07:13:01.221Z,1024.35
2022-10-20T07:14:00.593Z,1024.3
2022-10-20T07:15:00.180Z,1024.29
2022-10-20T07:15:59.838Z,1024.32
2022-10-20T07:17:01.542Z,1024.3
2022-10-20T07:18:01.135Z,1024.3
2022-10-20T07:19:01.158Z,1024.24
2022-10-20T07:20:01.592Z,1024.3
2022-10-20T07:21:02.108Z,1024.28
2022-10-20T07:22:01.989Z,1024.28
2022-10-20T07:23:01.185Z,1024.25
2022-10-20T07:24:01.398Z,1024.26
2022-10-20T07:25:01.089Z,1024.26
2022-10-20T07:26:01.079Z,1024.29
2022-10-20T07:27:01.113Z,1024.27
2022-10-20T07:28:01.087Z,1024.28
2022-10-20T07:29:01.340Z,1024.31
2022-10-20T07:30:01.119Z,1024.32
2022-10-20T07:31:01.876Z,1024.3
2022-10-20T07:32:02.086Z,1024.32
2022-10-20T07:33:02.551Z,1024.32
2022-10-20T07:34:13.582Z,1024.29
2022-10-20T07:35:01.324Z,1024.31
2022-10-20T07:36:01.675Z,1024.31
2022-10-20T07:37:01.856Z,1024.28
2022-10-20T07:38:01.048Z,1024.32
2022-10-20T07:39:01.194Z,1024.33
2022-10-20T07:40:01.061Z,1024.31
2022-10-20T07:41:01.775Z,1024.34
2022-10-20T07:42:01.778Z,1024.32
2022-10-20T07:43:01.120Z,1024.27
2022-10-20T07:44:01.149Z,1024.3
2022-10-20T07:45:01.815Z,1024.32
2022-10-20T07:46:01.520Z,1024.29
2022-10-20T07:47:00.716Z,1024.26
2022-10-20T07:48:00.409Z,1024.31
2022-10-20T07:49:23.907Z,1024.25
2022-10-20T07:50:01.282Z,1024.23
2022-10-20T07:51:01.591Z,1024.22
2022-10-20T07:52:01.530Z,1024.24
2022-10-20T07:53:01.203Z,1024.24
2022-10-20T07:54:03.122Z,1024.25
2022-10-20T07:55:17.381Z,1024.29
2022-10-20T07:56:01.059Z,1024.31
2022-10-20T07:57:01.778Z,1024.26
2022-10-20T07:58:02.509Z,1024.27
2022-10-20T07:59:06.573Z,1024.23
2022-10-20T08:00:01.287Z,1024.22
2022-10-20T08:01:04.097Z,1024.2
2022-10-20T08:02:01.836Z,1024.22
2022-10-20T08:03:01.151Z,1024.11
2022-10-20T08:04:09.521Z,1024.1
2022-10-20T08:05:01.133Z,1024.09
2022-10-20T08:06:01.141Z,1024.07
2022-10-20T08:07:01.285Z,1024.02
2022-10-20T08:08:01.532Z,1024.06
2022-10-20T08:09:12.701Z,1024.04
2022-10-20T08:10:01.088Z,1024.04
2022-10-20T08:11:01.356Z,1024.03
2022-10-20T08:12:01.089Z,1024.04
2022-10-20T08:13:01.090Z,1024.04
2022-10-20T08:14:14.425Z,1024.02
2022-10-20T08:15:01.132Z,1023.99
2022-10-20T08:16:01.511Z,1024.01
2022-10-20T08:17:01.372Z,1023.99
2022-10-20T08:18:01.102Z,1024.02
2022-10-20T08:19:01.698Z,1024.01
2022-10-20T08:20:02.224Z,1023.96
2022-10-20T08:21:01.329Z,1023.9
2022-10-20T08:22:02.573Z,1023.97
2022-10-20T08:23:01.312Z,1023.98
2022-10-20T08:24:01.398Z,1023.94
2022-10-20T08:25:01.534Z,1023.94
2022-10-20T08:26:01.154Z,1023.88
2022-10-20T08:27:01.053Z,1023.9
2022-10-20T08:28:01.071Z,1023.88
2022-10-20T08:29:01.088Z,1023.86
2022-10-20T08:30:22.359Z,1023.85
2022-10-20T08:31:01.511Z,1023.84
2022-10-20T08:32:01.263Z,1023.87
2022-10-20T08:33:01.107Z,1023.85
2022-10-20T08:34:01.435Z,1023.9
2022-10-20T08:35:01.121Z,1023.84
2022-10-20T08:36:01.128Z,1023.83
2022-10-20T08:37:01.124Z,1023.88
2022-10-20T08:38:00.560Z,1023.85
2022-10-20T08:39:03.564Z,1023.86
2022-10-20T08:40:01.755Z,1023.84
2022-10-20T08:41:01.162Z,1023.83
2022-10-20T08:42:09.561Z,1023.83
2022-10-20T08:43:01.057Z,1023.82
2022-10-20T08:44:01.147Z,1023.74
2022-10-20T08:45:01.075Z,1023.78
2022-10-20T08:46:01.269Z,1023.72
2022-10-20T08:47:01.081Z,1023.72
2022-10-20T08:48:01.158Z,1023.73
2022-10-20T08:49:01.102Z,1023.73
2022-10-20T08:50:01.483Z,1023.67
2022-10-20T08:51:01.543Z,1023.68
2022-10-20T08:52:01.188Z,1023.63
2022-10-20T08:53:01.078Z,1023.68
2022-10-20T08:54:00.830Z,1023.6
2022-10-20T08:55:00.392Z,1023.58
2022-10-20T08:56:00.006Z,1023.48
2022-10-20T08:56:59.601Z,1023.51
2022-10-20T08:58:01.406Z,1023.54
2022-10-20T08:59:01.200Z,1023.51
2022-10-20T09:00:03.912Z,1023.54
2022-10-20T09:01:04.144Z,1023.5
2022-10-20T09:02:01.214Z,1023.57
2022-10-20T09:03:01.230Z,1023.54
2022-10-20T09:04:02.316Z,1023.56
2022-10-20T09:05:00.843Z,1023.61
2022-10-20T09:06:00.481Z,1023.61
2022-10-20T09:07:00.021Z,1023.6
2022-10-20T09:07:59.567Z,1023.65
2022-10-20T09:09:01.246Z,1023.56
2022-10-20T09:10:01.300Z,1023.54
2022-10-20T09:11:01.129Z,1023.56
2022-10-20T09:12:01.269Z,1023.56
2022-10-20T09:13:01.655Z,1023.49
2022-10-20T09:14:01.301Z,1023.53
2022-10-20T09:15:02.553Z,1023.5
2022-10-20T09:16:01.078Z,1023.47
2022-10-20T09:17:01.233Z,1023.46
2022-10-20T09:18:01.240Z,1023.5
2022-10-20T09:19:01.088Z,1023.45
2022-10-20T09:20:01.101Z,1023.48
2022-10-20T09:21:01.093Z,1023.43
2022-10-20T09:22:02.114Z,1023.45
2022-10-20T09:23:04.197Z,1023.39
2022-10-20T09:24:01.320Z,1023.38
2022-10-20T09:25:01.160Z,1023.33
2022-10-20T09:26:01.219Z,1023.41
2022-10-20T09:27:01.139Z,1023.38
2022-10-20T09:28:01.140Z,1023.38
2022-10-20T09:29:12.452Z,1023.35
2022-10-20T09:30:01.279Z,1023.36
2022-10-20T09:31:02.971Z,1023.29
2022-10-20T09:32:16.643Z,1023.3
2022-10-20T09:33:01.603Z,1023.31
2022-10-20T09:34:01.233Z,1023.28
2022-10-20T09:35:05.258Z,1023.31
2022-10-20T09:36:02.204Z,1023.26
2022-10-20T09:37:01.432Z,1023.28
2022-10-20T09:38:02.636Z,1023.26
2022-10-20T09:39:01.143Z,1023.26
2022-10-20T09:40:07.928Z,1023.22
2022-10-20T09:41:02.621Z,1023.24
2022-10-20T09:43:02.041Z,1023.16
2022-10-20T09:44:02.766Z,1023.15
2022-10-20T09:45:11.091Z,1023.15
2022-10-20T09:46:01.586Z,1023.07
2022-10-20T09:47:01.324Z,1023.08
2022-10-20T09:48:02.213Z,1023.02
2022-10-20T09:49:02.223Z,1022.97
2022-10-20T09:50:14.035Z,1022.96
2022-10-20T09:51:01.942Z,1022.95
2022-10-20T09:52:01.083Z,1022.94
2022-10-20T09:53:00.926Z,1022.91
2022-10-20T09:54:01.069Z,1022.94
2022-10-20T09:55:15.920Z,1022.91
2022-10-20T09:56:01.116Z,1022.87
2022-10-20T09:57:01.151Z,1022.83
2022-10-20T09:58:01.124Z,1022.91
2022-10-20T09:59:01.191Z,1022.87
2022-10-20T10:00:04.505Z,1022.82
2022-10-20T10:01:01.153Z,1022.86
2022-10-20T10:02:01.489Z,1022.78
2022-10-20T10:03:01.185Z,1022.8
2022-10-20T10:04:01.149Z,1022.8
2022-10-20T10:05:01.158Z,1022.81
2022-10-20T10:06:01.143Z,1022.78
2022-10-20T10:07:01.185Z,1022.79
2022-10-20T10:08:01.270Z,1022.76
2022-10-20T10:09:01.174Z,1022.7
2022-10-20T10:10:03.950Z,1022.67
2022-10-20T10:11:01.085Z,1022.65
2022-10-20T10:12:01.449Z,1022.64
2022-10-20T10:13:01.581Z,1022.57
2022-10-20T10:14:01.539Z,1022.55
2022-10-20T10:15:01.250Z,1022.56
2022-10-20T10:16:01.954Z,1022.57
2022-10-20T10:17:01.189Z,1022.55
2022-10-20T10:18:01.152Z,1022.47
2022-10-20T10:19:02.009Z,1022.5
2022-10-20T10:20:01.060Z,1022.52
2022-10-20T10:21:01.460Z,1022.46
2022-10-20T10:22:01.350Z,1022.45
2022-10-20T10:23:02.044Z,1022.45
2022-10-20T10:24:02.113Z,1022.36
2022-10-20T10:25:01.242Z,1022.38
2022-10-20T10:26:02.279Z,1022.32
2022-10-20T10:27:01.158Z,1022.33
2022-10-20T10:28:01.412Z,1022.35
2022-10-20T10:29:01.264Z,1022.36
2022-10-20T10:30:01.136Z,1022.35
2022-10-20T10:31:02.045Z,1022.29
2022-10-20T10:32:01.145Z,1022.35
2022-10-20T10:33:01.144Z,1022.32
2022-10-20T10:34:00.753Z,1022.29
2022-10-20T10:35:00.350Z,1022.3
2022-10-20T10:35:59.929Z,1022.32
2022-10-20T10:37:02.371Z,1022.27
2022-10-20T10:38:01.764Z,1022.32
2022-10-20T10:39:02.315Z,1022.32
2022-10-20T10:40:01.909Z,1022.24
2022-10-20T10:41:01.143Z,1022.22
2022-10-20T10:42:01.105Z,1022.28
2022-10-20T10:43:01.102Z,1022.22
2022-10-20T10:44:01.120Z,1022.25
2022-10-20T10:45:01.113Z,1022.18
2022-10-20T10:46:01.503Z,1022.18
2022-10-20T10:47:01.245Z,1022.18
2022-10-20T10:48:01.075Z,1022.15
2022-10-20T10:49:01.138Z,1022.09
2022-10-20T10:50:01.147Z,1022.1
2022-10-20T10:51:01.051Z,1022.08
2022-10-20T10:52:01.452Z,1022.08
2022-10-20T10:53:01.094Z,1022.03
2022-10-20T10:54:00.763Z,1022.08
2022-10-20T10:55:00.350Z,1022.11
2022-10-20T10:56:00.205Z,1022.12
2022-10-20T10:56:59.830Z,1022.12
2022-10-20T10:58:01.566Z,1022.11
2022-10-20T10:59:01.161Z,1022.12
2022-10-20T11:00:01.136Z,1022.11
2022-10-20T11:01:01.980Z,1022.08
2022-10-20T11:02:01.191Z,1022.05
2022-10-20T11:03:01.153Z,1022.04
2022-10-20T11:04:01.133Z,1021.99
2022-10-20T11:05:01.149Z,1021.98
2022-10-20T11:06:01.153Z,1021.93
2022-10-20T11:07:01.160Z,1021.9
2022-10-20T11:08:01.061Z,1021.88
2022-10-20T11:09:01.436Z,1021.88
2022-10-20T11:10:01.356Z,1021.79
2022-10-20T11:11:01.875Z,1021.78
2022-10-20T11:12:01.114Z,1021.73
2022-10-20T11:13:01.531Z,1021.7
2022-10-20T11:14:01.101Z,1021.61
2022-10-20T11:15:01.286Z,1021.58
2022-10-20T11:16:11.601Z,1021.58
2022-10-20T11:17:01.278Z,1021.55
2022-10-20T11:18:01.463Z,1021.5
2022-10-20T11:19:01.518Z,1021.49
2022-10-20T11:20:02.142Z,1021.49
2022-10-20T11:21:07.655Z,1021.44
2022-10-20T11:22:01.429Z,1021.48
2022-10-20T11:23:04.119Z,1021.41
2022-10-20T11:24:02.074Z,1021.44
2022-10-20T11:25:01.159Z,1021.39
2022-10-20T11:26:09.924Z,1021.43
2022-10-20T11:27:01.134Z,1021.38
2022-10-20T11:28:01.037Z,1021.32
2022-10-20T11:29:01.090Z,1021.36
2022-10-20T11:30:01.548Z,1021.3
2022-10-20T11:31:12.626Z,1021.27
2022-10-20T11:32:02.011Z,1021.27
2022-10-20T11:33:01.160Z,1021.29
2022-10-20T11:34:00.774Z,1021.29
2022-10-20T11:35:00.394Z,1021.25
2022-10-20T11:36:13.452Z,1021.3
2022-10-20T11:37:01.157Z,1021.27
2022-10-20T11:38:01.064Z,1021.31
2022-10-20T11:39:01.193Z,1021.29
2022-10-20T11:40:04.581Z,1021.31
2022-10-20T11:41:15.453Z,1021.2
2022-10-20T11:42:01.472Z,1021.2
2022-10-20T11:43:02.087Z,1021.2
2022-10-20T11:44:01.091Z,1021.18
2022-10-20T11:45:01.096Z,1021.19
2022-10-20T11:46:01.085Z,1021.19
2022-10-20T11:47:01.094Z,1021.24
2022-10-20T11:48:01.037Z,1021.19
2022-10-20T11:49:03.343Z,1021.13
2022-10-20T11:50:01.823Z,1021.1
2022-10-20T11:51:01.186Z,1021.06
2022-10-20T11:52:01.520Z,1021.02
2022-10-20T11:53:01.144Z,1021
2022-10-20T11:54:01.155Z,1020.98
2022-10-20T11:55:01.246Z,1020.98
2022-10-20T11:56:01.146Z,1020.95
2022-10-20T11:57:01.074Z,1020.94
2022-10-20T11:58:01.319Z,1020.84
2022-10-20T11:59:03.373Z,1020.91
2022-10-20T12:00:01.108Z,1020.89
2022-10-20T12:01:01.094Z,1020.9
2022-10-20T12:02:01.498Z,1020.87
2022-10-20T12:03:01.216Z,1020.94
2022-10-20T12:04:01.126Z,1020.9
2022-10-20T12:05:01.817Z,1020.9
2022-10-20T12:06:01.057Z,1020.86
2022-10-20T12:07:00.716Z,1020.92
2022-10-20T12:08:24.760Z,1020.9
2022-10-20T12:09:01.373Z,1020.88
2022-10-20T12:10:01.343Z,1020.9
2022-10-20T12:11:01.369Z,1020.92